createdAt,value
2018-05-24T00:02:09.650Z,100554.42
2018-05-24T00:05:10.888Z,100555.23
2018-05-24T00:08:12.153Z,100560.05
2018-05-24T00:11:13.394Z,100549.22
2018-05-24T00:14:15.488Z,100551.25
2018-05-24T00:17:16.669Z,100556.05
2018-05-24T00:20:17.918Z,100551.72
2018-05-24T00:23:19.912Z,100550.84
2018-05-24T00:26:21.180Z,100561.66
2018-05-24T00:29:22.468Z,100554.08
2018-05-24T00:32:23.743Z,100551.27
2018-05-24T00:35:25.009Z,100553.04
2018-05-24T00:38:26.255Z,100556.26
2018-05-24T00:41:27.498Z,100552.80
2018-05-24T00:44:28.743Z,100556.83
2018-05-24T00:47:29.977Z,100543.78
2018-05-24T00:50:31.237Z,100539.08
2018-05-24T00:53:32.500Z,100542.69
2018-05-24T00:56:33.732Z,100540.91
2018-05-24T00:59:35.012Z,100543.29
2018-05-24T01:02:36.274Z,100539.91
2018-05-24T01:05:37.510Z,100549.56
2018-05-24T01:08:38.772Z,100544.66
2018-05-24T01:11:40.049Z,100541.06
2018-05-24T01:14:41.613Z,100541.57
2018-05-24T01:17:43.476Z,100543.73
2018-05-24T01:20:45.582Z,100537.12
2018-05-24T01:23:48.021Z,100528.02
2018-05-24T01:26:49.314Z,100527.45
2018-05-24T01:29:50.561Z,100532.80
2018-05-24T01:32:51.794Z,100524.43
2018-05-24T01:35:54.026Z,100534.45
2018-05-24T01:38:55.430Z,100533.58
2018-05-24T01:41:57.292Z,100528.98
2018-05-24T01:44:58.547Z,100525.73
2018-05-24T01:47:59.800Z,100531.55
2018-05-24T01:51:01.052Z,100524.27
2018-05-24T01:54:02.286Z,100527.05
2018-05-24T01:57:04.312Z,100527.59
2018-05-24T02:00:05.579Z,100528.80
2018-05-24T02:03:06.834Z,100516.84
2018-05-24T02:06:08.070Z,100509.88
2018-05-24T02:09:09.334Z,100512.80
2018-05-24T02:12:11.309Z,100509.89
2018-05-24T02:15:13.312Z,100512.41
2018-05-24T02:18:14.582Z,100504.20
2018-05-24T02:21:15.837Z,100501.81
2018-05-24T02:24:17.096Z,100504.14
2018-05-24T02:27:18.323Z,100494.66
2018-05-24T02:30:19.551Z,100502.17
2018-05-24T02:33:20.815Z,100502.85
2018-05-24T02:36:22.067Z,100512.41
2018-05-24T02:39:23.343Z,100515.99
2018-05-24T02:42:24.578Z,100507.80
2018-05-24T02:45:25.830Z,100509.47
2018-05-24T02:48:27.133Z,100505.98
2018-05-24T02:51:28.397Z,100503.72
2018-05-24T02:54:29.651Z,100512.45
2018-05-24T02:57:30.892Z,100519.01
2018-05-24T03:00:32.114Z,100510.55
2018-05-24T03:03:33.700Z,100514.33
2018-05-24T03:06:35.024Z,100514.08
2018-05-24T03:09:36.311Z,100514.34
2018-05-24T03:12:37.588Z,100510.30
2018-05-24T03:15:39.638Z,100514.56
2018-05-24T03:18:40.873Z,100512.35
2018-05-24T03:21:42.175Z,100515.80
2018-05-24T03:24:43.422Z,100514.94
2018-05-24T03:27:44.675Z,100512.20
2018-05-24T03:30:45.937Z,100507.28
2018-05-24T03:33:47.222Z,100510.26
2018-05-24T03:36:48.460Z,100502.06
2018-05-24T03:39:49.687Z,100496.18
2018-05-24T03:42:51.672Z,100495.00
2018-05-24T03:45:52.908Z,100491.19
2018-05-24T03:48:54.134Z,100496.39
2018-05-24T03:51:55.375Z,100494.91
2018-05-24T03:54:56.624Z,100501.71
2018-05-24T03:57:57.891Z,100494.03
2018-05-24T04:01:20.131Z,100494.58
2018-05-24T04:04:41.670Z,100495.72
2018-05-24T04:07:43.679Z,100489.28
2018-05-24T04:10:44.960Z,100492.91
2018-05-24T04:13:46.190Z,100492.88
2018-05-24T04:16:47.427Z,100490.20
2018-05-24T04:19:49.178Z,100498.81
2018-05-24T04:22:50.427Z,100498.14
2018-05-24T04:25:51.675Z,100505.92
2018-05-24T04:28:52.961Z,100491.39
2018-05-24T04:31:54.237Z,100506.16
2018-05-24T04:34:55.615Z,100500.23
2018-05-24T04:37:56.881Z,100491.93
2018-05-24T04:40:58.163Z,100482.91
2018-05-24T04:44:00.135Z,100477.66
2018-05-24T04:47:01.405Z,100486.47
2018-05-24T04:50:03.405Z,100480.57
2018-05-24T04:53:04.730Z,100490.36
2018-05-24T04:56:05.957Z,100492.11
2018-05-24T04:59:07.240Z,100492.64
2018-05-24T05:02:08.504Z,100488.22
2018-05-24T05:05:09.771Z,100493.14
2018-05-24T05:08:11.038Z,100504.87
2018-05-24T05:11:12.322Z,100499.31
2018-05-24T05:14:14.296Z,100489.83
2018-05-24T05:17:15.728Z,100494.89
2018-05-24T05:20:16.989Z,100492.91
2018-05-24T05:23:19.593Z,100492.60
2018-05-24T05:26:20.856Z,100481.55
2018-05-24T05:29:22.099Z,100480.87
2018-05-24T05:32:23.337Z,100477.89
2018-05-24T05:35:25.349Z,100480.27
2018-05-24T05:38:26.610Z,100466.56
2018-05-24T05:41:27.869Z,100479.83
2018-05-24T05:44:29.087Z,100480.70
2018-05-24T05:47:30.356Z,100480.64
2018-05-24T05:50:32.334Z,100481.11
2018-05-24T05:53:34.312Z,100479.80
2018-05-24T05:56:35.565Z,100466.94
2018-05-24T05:59:36.814Z,100469.82
2018-05-24T06:02:38.180Z,100463.05
2018-05-24T06:05:39.458Z,100468.90
2018-05-24T06:08:41.093Z,100463.52
2018-05-24T06:11:42.370Z,100452.83
2018-05-24T06:14:43.583Z,100456.84
2018-05-24T06:17:45.566Z,100456.49
2018-05-24T06:20:46.814Z,100450.30
2018-05-24T06:23:48.787Z,100452.05
2018-05-24T06:26:50.028Z,100453.61
2018-05-24T06:29:51.290Z,100455.97
2018-05-24T06:32:52.537Z,100448.92
2018-05-24T06:35:53.813Z,100455.03
2018-05-24T06:38:55.050Z,100457.55
2018-05-24T06:41:56.334Z,100462.30
2018-05-24T06:44:57.582Z,100460.37
2018-05-24T06:47:58.853Z,100475.06
2018-05-24T06:51:00.126Z,100474.61
2018-05-24T06:54:01.398Z,100473.83
2018-05-24T06:57:02.674Z,100474.95
2018-05-24T07:00:03.965Z,100478.75
2018-05-24T07:03:05.971Z,100482.68
2018-05-24T07:06:07.235Z,100481.59
2018-05-24T07:09:08.474Z,100490.56
2018-05-24T07:12:09.738Z,100490.02
2018-05-24T07:15:10.982Z,100493.29
2018-05-24T07:18:12.981Z,100489.84
2018-05-24T07:21:14.213Z,100491.03
2018-05-24T07:24:15.712Z,100483.81
2018-05-24T07:27:16.955Z,100495.70
2018-05-24T07:30:18.935Z,100495.81
2018-05-24T07:33:20.205Z,100489.75
2018-05-24T07:36:22.225Z,100487.55
2018-05-24T07:39:23.475Z,100486.20
2018-05-24T07:42:24.769Z,100479.45
2018-05-24T07:45:25.990Z,100476.50
2018-05-24T07:48:27.241Z,100479.83
2018-05-24T07:51:29.218Z,100470.94
2018-05-24T07:54:31.241Z,100465.41
2018-05-24T07:57:32.479Z,100458.88
2018-05-24T08:00:33.741Z,100469.84
2018-05-24T08:03:34.984Z,100466.84
2018-05-24T08:06:36.963Z,100457.72
2018-05-24T08:09:38.941Z,100452.41
2018-05-24T08:12:40.180Z,100456.83
2018-05-24T08:15:41.441Z,100451.05
2018-05-24T08:18:42.683Z,100455.38
2018-05-24T08:21:43.921Z,100461.33
2018-05-24T08:24:45.179Z,100459.44
2018-05-24T08:27:46.402Z,100465.36
2018-05-24T08:30:47.686Z,100452.78
2018-05-24T08:33:49.689Z,100451.06
2018-05-24T08:36:50.927Z,100450.80
2018-05-24T08:39:52.906Z,100457.50
2018-05-24T08:42:54.917Z,100453.38
2018-05-24T08:45:56.149Z,100449.70
2018-05-24T08:48:58.158Z,100454.17
2018-05-24T08:51:59.387Z,100448.00
2018-05-24T08:55:00.644Z,100449.84
2018-05-24T08:58:01.889Z,100459.47
2018-05-24T09:01:03.163Z,100453.22
2018-05-24T09:04:04.436Z,100455.88
2018-05-24T09:07:05.700Z,100458.96
2018-05-24T09:10:06.939Z,100463.39
2018-05-24T09:13:08.210Z,100454.31
2018-05-24T09:16:09.449Z,100462.53
2018-05-24T09:19:10.698Z,100459.35
2018-05-24T09:22:11.939Z,100460.07
2018-05-24T09:25:13.939Z,100459.54
2018-05-24T09:28:15.245Z,100463.77
2018-05-24T09:31:16.533Z,100458.53
2018-05-24T09:34:18.519Z,100462.53
2018-05-24T09:37:20.555Z,100466.33
2018-05-24T09:40:21.786Z,100458.20
2018-05-24T09:43:23.035Z,100459.11
2018-05-24T09:46:25.036Z,100454.12
2018-05-24T09:49:26.279Z,100455.62
2018-05-24T09:52:28.266Z,100451.13
2018-05-24T09:55:29.517Z,100446.25
2018-05-24T09:58:31.471Z,100445.39
2018-05-24T10:01:32.836Z,100441.02
2018-05-24T10:04:34.139Z,100443.00
2018-05-24T10:07:35.296Z,100431.41
2018-05-24T10:10:36.625Z,100433.36
2018-05-24T10:13:37.776Z,100433.75
2018-05-24T10:16:39.138Z,100436.17
2018-05-24T10:19:40.401Z,100423.22
2018-05-24T10:22:41.665Z,100430.98
2018-05-24T10:25:42.945Z,100426.54
2018-05-24T10:28:44.203Z,100421.25
2018-05-24T10:31:45.900Z,100423.33
2018-05-24T10:34:47.156Z,100419.24
2018-05-24T10:37:49.654Z,100413.91
2018-05-24T10:40:50.906Z,100412.64
2018-05-24T10:43:52.282Z,100408.60
2018-05-24T10:46:54.306Z,100397.50
2018-05-24T10:49:55.578Z,100396.37
2018-05-24T10:52:56.825Z,100397.98
2018-05-24T10:55:58.145Z,100394.20
2018-05-24T10:58:59.389Z,100388.70
2018-05-24T11:02:00.669Z,100388.78
2018-05-24T11:05:01.911Z,100381.52
2018-05-24T11:08:03.167Z,100390.16
2018-05-24T11:11:05.143Z,100391.84
2018-05-24T11:14:06.416Z,100381.88
2018-05-24T11:17:07.650Z,100381.33
2018-05-24T11:20:08.921Z,100379.32
2018-05-24T11:23:10.159Z,100374.07
2018-05-24T11:26:11.444Z,100380.27
2018-05-24T11:29:12.685Z,100373.52
2018-05-24T11:32:13.926Z,100370.01
2018-05-24T11:35:15.918Z,100367.79
2018-05-24T11:38:17.940Z,100362.97
2018-05-24T11:41:19.181Z,100354.12
2018-05-24T11:44:20.443Z,100358.41
2018-05-24T11:47:21.686Z,100350.70
2018-05-24T11:50:23.675Z,100351.12
2018-05-24T11:53:24.899Z,100337.56
2018-05-24T11:56:26.162Z,100346.15
2018-05-24T11:59:27.418Z,100336.33
2018-05-24T12:02:28.700Z,100337.81
2018-05-24T12:05:29.960Z,100334.47
2018-05-24T12:08:31.248Z,100336.58
2018-05-24T12:11:33.222Z,100332.59
2018-05-24T12:14:35.221Z,100333.93
2018-05-24T12:17:36.464Z,100328.59
2018-05-24T12:20:38.459Z,100327.09
2018-05-24T12:23:39.728Z,100321.36
2018-05-24T12:26:41.721Z,100326.89
2018-05-24T12:29:42.949Z,100322.69
2018-05-24T12:32:44.967Z,100325.13
2018-05-24T12:35:46.192Z,100319.34
2018-05-24T12:38:48.839Z,100325.55
2018-05-24T12:45:55.015Z,100338.87
2018-05-24T12:48:57.085Z,100330.41
2018-05-24T12:51:58.288Z,100333.31
2018-05-24T12:54:59.549Z,100335.87
2018-05-24T12:58:00.833Z,100335.70
2018-05-24T13:01:02.093Z,100330.80
2018-05-24T13:04:08.921Z,100315.34
2018-05-24T13:07:11.127Z,100316.29
2018-05-24T13:10:12.797Z,100325.91
2018-05-24T13:13:14.672Z,100323.55
2018-05-24T13:16:15.944Z,100315.27
2018-05-24T13:19:18.274Z,100320.99
2018-05-24T13:22:19.547Z,100316.48
2018-05-24T13:25:21.165Z,100315.90
2018-05-24T13:28:23.623Z,100313.94
2018-05-24T13:31:24.967Z,100318.70
2018-05-24T13:34:26.542Z,100319.39
2018-05-24T13:37:28.332Z,100312.05
2018-05-24T13:40:30.483Z,100324.02
2018-05-24T13:43:32.528Z,100315.68
2018-05-24T13:46:35.077Z,100309.97
2018-05-24T13:49:36.749Z,100309.05
2018-05-24T13:52:38.206Z,100316.63
2018-05-24T13:55:39.607Z,100307.23
2018-05-24T13:58:42.597Z,100317.12
2018-05-24T14:01:44.289Z,100315.72
2018-05-24T14:04:45.479Z,100314.62
2018-05-24T14:07:47.465Z,100305.41
2018-05-24T14:10:49.945Z,100293.92
2018-05-24T14:13:51.491Z,100302.60
2018-05-24T14:16:53.271Z,100297.74
2018-05-24T14:19:54.922Z,100296.12
2018-05-24T14:22:57.144Z,100290.36
2018-05-24T14:25:59.516Z,100293.98
2018-05-24T14:29:00.758Z,100299.53
2018-05-24T14:32:02.016Z,100295.75
2018-05-24T14:35:03.289Z,100275.65
2018-05-24T14:38:04.552Z,100283.45
2018-05-24T14:41:05.829Z,100280.55
2018-05-24T14:44:07.075Z,100282.54
2018-05-24T14:47:09.077Z,100288.56
2018-05-24T14:50:10.345Z,100281.02
2018-05-24T14:53:11.577Z,100286.56
2018-05-24T14:56:12.826Z,100277.30
2018-05-24T14:59:14.062Z,100287.36
2018-05-24T15:02:15.310Z,100273.22
2018-05-24T15:05:17.329Z,100272.30
2018-05-24T15:08:18.593Z,100272.30
2018-05-24T15:11:19.847Z,100268.66
2018-05-24T15:14:21.077Z,100262.63
2018-05-24T15:17:23.088Z,100266.52
2018-05-24T15:20:24.351Z,100263.00
2018-05-24T15:23:25.588Z,100265.48
2018-05-24T15:26:27.593Z,100266.19
2018-05-24T15:29:28.846Z,100261.05
2018-05-24T15:32:30.072Z,100262.23
2018-05-24T15:35:31.353Z,100263.39
2018-05-24T15:38:33.341Z,100256.22
2018-05-24T15:41:35.352Z,100259.52
2018-05-24T15:44:36.589Z,100260.83
2018-05-24T15:47:38.569Z,100254.91
2018-05-24T15:50:40.557Z,100263.38
2018-05-24T15:53:41.875Z,100252.05
2018-05-24T15:56:43.148Z,100250.70
2018-05-24T15:59:44.425Z,100255.13
2018-05-24T16:02:46.421Z,100247.94
2018-05-24T16:05:47.685Z,100250.05
2018-05-24T16:08:50.751Z,100252.11
2018-05-24T16:11:52.046Z,100260.94
2018-05-24T16:14:54.049Z,100247.36
2018-05-24T16:17:55.310Z,100249.40
2018-05-24T16:20:56.550Z,100248.91
2018-05-24T16:23:58.567Z,100243.08
2018-05-24T16:26:59.844Z,100241.91
2018-05-24T16:30:01.138Z,100239.21
2018-05-24T16:33:02.385Z,100237.67
2018-05-24T16:36:03.651Z,100241.14
2018-05-24T16:39:04.937Z,100236.84
2018-05-24T16:42:06.198Z,100240.76
2018-05-24T16:45:07.461Z,100235.41
2018-05-24T16:48:08.757Z,100228.17
2018-05-24T16:51:09.993Z,100227.52
2018-05-24T16:54:11.432Z,100220.88
2018-05-24T16:57:12.612Z,100225.83
2018-05-24T17:00:13.861Z,100231.22
2018-05-24T17:03:15.099Z,100228.42
2018-05-24T17:06:16.350Z,100235.72
2018-05-24T17:09:17.626Z,100235.94
2018-05-24T17:12:18.870Z,100228.94
2018-05-24T17:15:20.134Z,100226.95
2018-05-24T17:18:21.365Z,100233.73
2018-05-24T17:21:22.626Z,100232.69
2018-05-24T17:24:23.838Z,100237.46
2018-05-24T17:27:25.099Z,100237.59
2018-05-24T17:30:26.376Z,100237.78
2018-05-24T17:33:27.615Z,100242.11
2018-05-24T17:36:28.870Z,100234.52
2018-05-24T17:39:30.117Z,100234.45
2018-05-24T17:42:32.080Z,100231.29
2018-05-24T17:45:33.338Z,100233.92
2018-05-24T17:48:34.590Z,100233.59
2018-05-24T17:51:35.868Z,100237.80
2018-05-24T17:54:37.129Z,100247.02
2018-05-24T17:57:38.362Z,100243.31
2018-05-24T18:00:40.110Z,100239.95
2018-05-24T18:03:41.379Z,100240.18
2018-05-24T18:06:42.656Z,100252.96
2018-05-24T18:09:43.910Z,100250.53
2018-05-24T18:12:45.179Z,100254.75
2018-05-24T18:15:46.438Z,100247.42
2018-05-24T18:18:50.735Z,100250.00
2018-05-24T18:21:52.492Z,100258.09
2018-05-24T18:24:54.741Z,100257.16
2018-05-24T18:27:56.005Z,100262.78
2018-05-24T18:30:57.372Z,100252.48
2018-05-24T18:33:58.650Z,100248.59
2018-05-24T18:36:59.907Z,100266.03
2018-05-24T18:40:01.157Z,100256.47
2018-05-24T18:43:02.480Z,100261.07
2018-05-24T18:46:04.491Z,100266.54
2018-05-24T18:49:05.715Z,100268.89
2018-05-24T18:52:07.005Z,100274.77
2018-05-24T18:55:08.238Z,100279.59
2018-05-24T18:58:10.052Z,100279.94
2018-05-24T19:01:11.343Z,100283.46
2018-05-24T19:04:12.615Z,100289.11
2018-05-24T19:07:14.388Z,100280.03
2018-05-24T19:10:16.128Z,100288.94
2018-05-24T19:13:17.471Z,100294.33
2018-05-24T19:16:18.941Z,100290.42
2018-05-24T19:19:20.245Z,100284.08
2018-05-24T19:22:21.721Z,100283.94
2018-05-24T19:25:22.967Z,100293.50
2018-05-24T19:28:24.252Z,100289.59
2018-05-24T19:31:25.763Z,100289.07
2018-05-24T19:34:27.761Z,100286.51
2018-05-24T19:37:29.032Z,100289.84
2018-05-24T19:40:30.315Z,100287.50
2018-05-24T19:43:31.658Z,100295.41
2018-05-24T19:46:34.015Z,100290.50
2018-05-24T19:49:35.392Z,100297.06
2018-05-24T19:52:37.675Z,100293.67
2018-05-24T19:55:40.817Z,100298.66
2018-05-24T19:58:42.102Z,100297.41
2018-05-24T20:01:43.538Z,100311.00
2018-05-24T20:04:44.907Z,100310.48
2018-05-24T20:07:46.177Z,100316.01
2018-05-24T20:10:47.452Z,100316.12
2018-05-24T20:13:48.693Z,100315.53
2018-05-24T20:16:50.200Z,100323.99
2018-05-24T20:19:51.625Z,100320.55
2018-05-24T20:22:52.906Z,100329.05
2018-05-24T20:25:54.161Z,100340.09
2018-05-24T20:28:55.541Z,100337.33
2018-05-24T20:31:58.868Z,100322.41
2018-05-24T20:35:00.918Z,100326.05
2018-05-24T20:38:02.920Z,100322.27
2018-05-24T20:41:04.213Z,100322.69
2018-05-24T20:44:05.561Z,100323.33
2018-05-24T20:47:06.892Z,100329.25
2018-05-24T20:50:09.657Z,100326.95
2018-05-24T20:53:14.952Z,100319.00
2018-05-24T20:56:16.247Z,100313.83
2018-05-24T20:59:18.861Z,100322.44
2018-05-24T21:02:20.804Z,100317.23
2018-05-24T21:05:22.126Z,100312.02
2018-05-24T21:08:24.144Z,100310.72
2018-05-24T21:11:25.440Z,100308.91
2018-05-24T21:14:26.690Z,100317.66
2018-05-24T21:17:28.191Z,100303.30
2018-05-24T21:20:29.429Z,100307.29
2018-05-24T21:23:32.861Z,100299.28
2018-05-24T21:26:34.599Z,100311.48
2018-05-24T21:29:37.670Z,100310.47
2018-05-24T21:32:39.655Z,100300.34
2018-05-24T21:35:41.669Z,100292.40
2018-05-24T21:38:43.677Z,100292.16
2018-05-24T21:41:44.978Z,100291.61
2018-05-24T21:44:46.982Z,100289.48
2018-05-24T21:47:48.294Z,100299.13
2018-05-24T21:50:49.601Z,100286.04
2018-05-24T21:53:51.603Z,100289.84
2018-05-24T21:56:52.865Z,100285.37
2018-05-24T21:59:54.127Z,100294.78
2018-05-24T22:02:55.379Z,100287.85
2018-05-24T22:05:56.711Z,100290.20
2018-05-24T22:08:57.945Z,100290.03
2018-05-24T22:11:59.967Z,100294.02
2018-05-24T22:15:01.944Z,100293.28
2018-05-24T22:18:03.975Z,100292.92
2018-05-24T22:21:05.971Z,100290.98
2018-05-24T22:24:07.199Z,100293.94
2018-05-24T22:27:08.431Z,100294.94
2018-05-24T22:30:10.443Z,100292.80
2018-05-24T22:33:11.690Z,100291.98
2018-05-24T22:36:12.935Z,100288.97
2018-05-24T22:39:14.914Z,100291.58
2018-05-24T22:42:16.967Z,100297.08
2018-05-24T22:45:18.205Z,100303.52
2018-05-24T22:48:19.436Z,100289.84
2018-05-24T22:51:21.418Z,100297.71
2018-05-24T22:54:22.685Z,100300.48
2018-05-24T22:57:23.935Z,100296.21
2018-05-24T23:00:25.988Z,100296.12
2018-05-24T23:03:27.210Z,100294.83
2018-05-24T23:06:28.498Z,100287.91
2018-05-24T23:09:29.773Z,100284.03
2018-05-24T23:12:31.026Z,100296.28
2018-05-24T23:15:32.305Z,100289.00
2018-05-24T23:18:33.550Z,100286.56
2018-05-24T23:21:34.806Z,100293.71
2018-05-24T23:24:36.050Z,100299.07
2018-05-24T23:27:37.309Z,100278.13
2018-05-24T23:30:38.581Z,100289.62
2018-05-24T23:33:39.874Z,100281.47
2018-05-24T23:36:41.872Z,100279.70
2018-05-24T23:39:43.130Z,100291.25
2018-05-24T23:42:44.372Z,100277.55
2018-05-24T23:45:45.621Z,100283.77
2018-05-24T23:48:46.874Z,100281.55
2018-05-24T23:51:48.106Z,100282.17
2018-05-24T23:54:50.097Z,100293.62
2018-05-24T23:57:54.732Z,100299.58
